sensor_id;sensor_type;location;lat;lon;timestamp;pressure;altitude;pressure_sealevel;temperature;humidity
62462;BME280;48511;38.664;-9.202;2022-12-18T00:01:36;50091.22;;;-146.63;87.98
62462;BME280;48511;38.664;-9.202;2022-12-18T00:03:37;50073.44;;;-146.63;88.33
62462;BME280;48511;38.664;-9.202;2022-12-18T00:05:46;50103.06;;;-146.63;88.28
62462;BME280;48511;38.664;-9.202;2022-12-18T00:07:47;50063.59;;;-146.63;88.36
62462;BME280;48511;38.664;-9.202;2022-12-18T00:09:47;50085.28;;;-146.63;88.73
62462;BME280;48511;38.664;-9.202;2022-12-18T00:11:48;50051.75;;;-146.63;88.49
62462;BME280;48511;38.664;-9.202;2022-12-18T00:13:49;50114.91;;;-146.63;88.76
62462;BME280;48511;38.664;-9.202;2022-12-18T00:15:50;50069.50;;;-146.63;88.50
62462;BME280;48511;38.664;-9.202;2022-12-18T00:17:50;50077.41;;;-146.63;88.75
62462;BME280;48511;38.664;-9.202;2022-12-18T00:19:51;50114.91;;;-146.63;88.97
62462;BME280;48511;38.664;-9.202;2022-12-18T00:21:52;50089.25;;;-146.63;89.14
62462;BME280;48511;38.664;-9.202;2022-12-18T00:23:52;50110.94;;;-146.63;89.30
62462;BME280;48511;38.664;-9.202;2022-12-18T00:25:53;50071.47;;;-146.63;89.39
62462;BME280;48511;38.664;-9.202;2022-12-18T00:27:54;50097.13;;;-146.63;89.55
62462;BME280;48511;38.664;-9.202;2022-12-18T00:29:55;50049.78;;;-146.63;89.21
62462;BME280;48511;38.664;-9.202;2022-12-18T00:31:55;50114.91;;;-146.63;89.27
62462;BME280;48511;38.664;-9.202;2022-12-18T00:33:56;50091.22;;;-146.63;89.11
62462;BME280;48511;38.664;-9.202;2022-12-18T00:36:04;50059.63;;;-146.63;89.18
62462;BME280;48511;38.664;-9.202;2022-12-18T00:38:06;50105.03;;;-146.63;89.36
62462;BME280;48511;38.664;-9.202;2022-12-18T00:40:07;50099.09;;;-146.63;89.23
62462;BME280;48511;38.664;-9.202;2022-12-18T00:42:10;50099.09;;;-146.63;89.41
62462;BME280;48511;38.664;-9.202;2022-12-18T00:44:29;50114.91;;;-146.63;89.58
62462;BME280;48511;38.664;-9.202;2022-12-18T00:46:30;50122.78;;;-146.63;89.38
62462;BME280;48511;38.664;-9.202;2022-12-18T00:48:32;50118.84;;;-146.63;89.75
62462;BME280;48511;38.664;-9.202;2022-12-18T00:50:32;50103.06;;;-146.63;89.72
62462;BME280;48511;38.664;-9.202;2022-12-18T00:52:34;50107.00;;;-146.63;89.64
62462;BME280;48511;38.664;-9.202;2022-12-18T00:54:35;50063.59;;;-146.63;89.56
62462;BME280;48511;38.664;-9.202;2022-12-18T00:56:38;50081.34;;;-146.63;89.76
62462;BME280;48511;38.664;-9.202;2022-12-18T00:58:39;50095.16;;;-146.63;89.85
62462;BME280;48511;38.664;-9.202;2022-12-18T01:00:40;50103.06;;;-146.63;90.05
62462;BME280;48511;38.664;-9.202;2022-12-18T01:02:45;50059.63;;;-146.63;89.96
62462;BME280;48511;38.664;-9.202;2022-12-18T01:04:45;50107.00;;;-146.63;90.16
62462;BME280;48511;38.664;-9.202;2022-12-18T01:06:46;50103.06;;;-146.63;90.46
62462;BME280;48511;38.664;-9.202;2022-12-18T01:08:47;50110.94;;;-146.63;90.38
62462;BME280;48511;38.664;-9.202;2022-12-18T01:10:47;50087.28;;;-146.63;90.33
62462;BME280;48511;38.664;-9.202;2022-12-18T01:12:48;50107.00;;;-146.63;90.35
62462;BME280;48511;38.664;-9.202;2022-12-18T01:14:51;50055.69;;;-146.63;90.71
62462;BME280;48511;38.664;-9.202;2022-12-18T01:16:52;50083.31;;;-146.63;90.88
62462;BME280;48511;38.664;-9.202;2022-12-18T01:18:53;50073.44;;;-146.63;90.87
62462;BME280;48511;38.664;-9.202;2022-12-18T01:20:54;50110.94;;;-146.63;90.99
62462;BME280;48511;38.664;-9.202;2022-12-18T01:22:55;50116.88;;;-146.63;90.99
62462;BME280;48511;38.664;-9.202;2022-12-18T01:24:56;50107.00;;;-146.63;90.96
62462;BME280;48511;38.664;-9.202;2022-12-18T01:26:56;50079.38;;;-146.63;91.23
62462;BME280;48511;38.664;-9.202;2022-12-18T01:28:58;50110.94;;;-146.63;91.21
62462;BME280;48511;38.664;-9.202;2022-12-18T01:31:10;50120.81;;;-146.63;91.62
62462;BME280;48511;38.664;-9.202;2022-12-18T01:33:10;50085.28;;;-146.63;91.83
62462;BME280;48511;38.664;-9.202;2022-12-18T01:35:11;50110.94;;;-146.63;91.93
62462;BME280;48511;38.664;-9.202;2022-12-18T01:37:12;50067.53;;;-146.63;91.92
62462;BME280;48511;38.664;-9.202;2022-12-18T01:39:14;50055.69;;;-146.63;92.37
62462;BME280;48511;38.664;-9.202;2022-12-18T01:41:18;50081.34;;;-146.63;92.55
62462;BME280;48511;38.664;-9.202;2022-12-18T01:43:19;50108.97;;;-146.63;92.39
62462;BME280;48511;38.664;-9.202;2022-12-18T01:45:28;50071.47;;;-146.63;92.32
62462;BME280;48511;38.664;-9.202;2022-12-18T01:49:45;50083.31;;;-146.63;92.32
62462;BME280;48511;38.664;-9.202;2022-12-18T01:51:45;50103.06;;;-146.63;92.62
62462;BME280;48511;38.664;-9.202;2022-12-18T01:53:47;50091.22;;;-146.63;92.51
62462;BME280;48511;38.664;-9.202;2022-12-18T01:55:52;50107.00;;;-146.63;92.50
62462;BME280;48511;38.664;-9.202;2022-12-18T01:57:56;50083.31;;;-146.63;92.34
62462;BME280;48511;38.664;-9.202;2022-12-18T02:00:06;50083.31;;;-146.63;92.53
62462;BME280;48511;38.664;-9.202;2022-12-18T02:02:14;50099.09;;;-146.63;92.45
62462;BME280;48511;38.664;-9.202;2022-12-18T02:04:23;50107.00;;;-146.63;92.35
62462;BME280;48511;38.664;-9.202;2022-12-18T02:06:34;50126.75;;;-146.63;92.22
62462;BME280;48511;38.664;-9.202;2022-12-18T02:11:05;50130.69;;;-146.63;92.62
62462;BME280;48511;38.664;-9.202;2022-12-18T02:13:28;50083.31;;;-146.63;92.72
62462;BME280;48511;38.664;-9.202;2022-12-18T02:18:34;50130.69;;;-146.63;92.68
62462;BME280;48511;38.664;-9.202;2022-12-18T02:20:43;50112.94;;;-146.63;92.65
62462;BME280;48511;38.664;-9.202;2022-12-18T02:27:32;50073.44;;;-146.63;92.85
62462;BME280;48511;38.664;-9.202;2022-12-18T02:29:58;50095.16;;;-146.63;92.86
62462;BME280;48511;38.664;-9.202;2022-12-18T02:32:03;50091.22;;;-146.63;93.06
62462;BME280;48511;38.664;-9.202;2022-12-18T02:34:07;50118.84;;;-146.63;93.16
62462;BME280;48511;38.664;-9.202;2022-12-18T02:36:12;50110.94;;;-146.63;93.13
62462;BME280;48511;38.664;-9.202;2022-12-18T02:38:16;50142.53;;;-146.63;93.00
62462;BME280;48511;38.664;-9.202;2022-12-18T02:40:22;50097.13;;;-146.63;93.21
62462;BME280;48511;38.664;-9.202;2022-12-18T02:42:25;50107.00;;;-146.63;92.97
62462;BME280;48511;38.664;-9.202;2022-12-18T02:44:26;50075.44;;;-146.63;93.24
62462;BME280;48511;38.664;-9.202;2022-12-18T02:46:35;50099.09;;;-146.63;93.27
62462;BME280;48511;38.664;-9.202;2022-12-18T02:48:42;50105.03;;;-146.63;92.97
62462;BME280;48511;38.664;-9.202;2022-12-18T02:50:55;50110.94;;;-146.63;93.16
62462;BME280;48511;38.664;-9.202;2022-12-18T02:53:36;50091.22;;;-146.63;93.24
62462;BME280;48511;38.664;-9.202;2022-12-18T03:02:22;50083.31;;;-146.63;93.49
62462;BME280;48511;38.664;-9.202;2022-12-18T03:04:39;50114.91;;;-146.63;93.41
62462;BME280;48511;38.664;-9.202;2022-12-18T03:06:44;50071.47;;;-146.63;93.19
62462;BME280;48511;38.664;-9.202;2022-12-18T03:08:50;50130.69;;;-146.63;93.19
62462;BME280;48511;38.664;-9.202;2022-12-18T03:11:02;50114.91;;;-146.63;93.18
62462;BME280;48511;38.664;-9.202;2022-12-18T03:13:08;50095.16;;;-146.63;93.34
62462;BME280;48511;38.664;-9.202;2022-12-18T03:15:18;50091.22;;;-146.63;94.09
62462;BME280;48511;38.664;-9.202;2022-12-18T03:17:28;50089.25;;;-146.63;94.52
62462;BME280;48511;38.664;-9.202;2022-12-18T03:19:32;50110.94;;;-146.63;94.37
62462;BME280;48511;38.664;-9.202;2022-12-18T03:22:01;50118.84;;;-146.63;94.14
62462;BME280;48511;38.664;-9.202;2022-12-18T03:24:12;50085.28;;;-146.63;93.86
62462;BME280;48511;38.664;-9.202;2022-12-18T03:26:17;50091.22;;;-146.63;93.83
62462;BME280;48511;38.664;-9.202;2022-12-18T03:28:21;50101.09;;;-146.63;93.88
62462;BME280;48511;38.664;-9.202;2022-12-18T03:30:30;50122.78;;;-146.63;93.78
62462;BME280;48511;38.664;-9.202;2022-12-18T03:32:40;50103.06;;;-146.63;93.86
62462;BME280;48511;38.664;-9.202;2022-12-18T03:34:46;50083.31;;;-146.63;93.78
62462;BME280;48511;38.664;-9.202;2022-12-18T03:36:49;50103.06;;;-146.63;93.88
62462;BME280;48511;38.664;-9.202;2022-12-18T03:38:50;50099.09;;;-146.63;93.79
62462;BME280;48511;38.664;-9.202;2022-12-18T03:46:02;50110.94;;;-146.63;93.66
62462;BME280;48511;38.664;-9.202;2022-12-18T03:50:22;50067.53;;;-146.63;93.49
62462;BME280;48511;38.664;-9.202;2022-12-18T03:52:51;50116.88;;;-146.63;93.13
62462;BME280;48511;38.664;-9.202;2022-12-18T03:54:55;50114.91;;;-146.63;93.35
62462;BME280;48511;38.664;-9.202;2022-12-18T03:57:05;50136.63;;;-146.63;93.50
62462;BME280;48511;38.664;-9.202;2022-12-18T03:59:11;50132.66;;;-146.63;93.49
62462;BME280;48511;38.664;-9.202;2022-12-18T04:01:14;50114.91;;;-146.63;93.52
62462;BME280;48511;38.664;-9.202;2022-12-18T04:03:18;50071.47;;;-146.63;93.71
62462;BME280;48511;38.664;-9.202;2022-12-18T04:05:22;50124.78;;;-146.63;93.77
62462;BME280;48511;38.664;-9.202;2022-12-18T04:07:25;50077.41;;;-146.63;93.79
62462;BME280;48511;38.664;-9.202;2022-12-18T04:09:26;50081.34;;;-146.63;93.91
62462;BME280;48511;38.664;-9.202;2022-12-18T04:11:27;50108.97;;;-146.63;93.85
62462;BME280;48511;38.664;-9.202;2022-12-18T04:13:31;50114.91;;;-146.63;93.75
62462;BME280;48511;38.664;-9.202;2022-12-18T04:15:36;50118.84;;;-146.63;93.68
62462;BME280;48511;38.664;-9.202;2022-12-18T04:17:46;50116.88;;;-146.63;93.70
62462;BME280;48511;38.664;-9.202;2022-12-18T04:19:47;50093.19;;;-146.63;93.82
62462;BME280;48511;38.664;-9.202;2022-12-18T04:21:48;50091.22;;;-146.63;93.66
62462;BME280;48511;38.664;-9.202;2022-12-18T04:23:49;50095.16;;;-146.63;93.79
62462;BME280;48511;38.664;-9.202;2022-12-18T04:25:52;50095.16;;;-146.63;93.95
62462;BME280;48511;38.664;-9.202;2022-12-18T04:28:05;50105.03;;;-146.63;93.68
62462;BME280;48511;38.664;-9.202;2022-12-18T04:30:06;50122.78;;;-146.63;93.89
62462;BME280;48511;38.664;-9.202;2022-12-18T04:32:08;50103.06;;;-146.63;94.10
62462;BME280;48511;38.664;-9.202;2022-12-18T04:34:10;50130.69;;;-146.63;94.19
62462;BME280;48511;38.664;-9.202;2022-12-18T04:36:18;50120.81;;;-146.63;94.08
62462;BME280;48511;38.664;-9.202;2022-12-18T04:38:20;50122.78;;;-146.63;94.07
62462;BME280;48511;38.664;-9.202;2022-12-18T04:40:28;50110.94;;;-146.63;93.82
62462;BME280;48511;38.664;-9.202;2022-12-18T04:42:29;50128.72;;;-146.63;93.88
62462;BME280;48511;38.664;-9.202;2022-12-18T04:44:29;50136.63;;;-146.63;94.05
62462;BME280;48511;38.664;-9.202;2022-12-18T04:46:30;50108.97;;;-146.63;94.09
62462;BME280;48511;38.664;-9.202;2022-12-18T04:48:31;50126.75;;;-146.63;94.11
62462;BME280;48511;38.664;-9.202;2022-12-18T04:50:32;50103.06;;;-146.63;94.04
62462;BME280;48511;38.664;-9.202;2022-12-18T04:52:32;50112.94;;;-146.63;94.01
62462;BME280;48511;38.664;-9.202;2022-12-18T04:54:33;50095.16;;;-146.63;94.10
62462;BME280;48511;38.664;-9.202;2022-12-18T04:56:34;50110.94;;;-146.63;94.12
62462;BME280;48511;38.664;-9.202;2022-12-18T04:58:36;50097.13;;;-146.63;94.11
62462;BME280;48511;38.664;-9.202;2022-12-18T05:00:36;50144.50;;;-146.63;93.99
62462;BME280;48511;38.664;-9.202;2022-12-18T05:02:37;50122.78;;;-146.63;93.98
62462;BME280;48511;38.664;-9.202;2022-12-18T05:04:38;50110.94;;;-146.63;94.07
62462;BME280;48511;38.664;-9.202;2022-12-18T05:06:39;50122.78;;;-146.63;94.13
62462;BME280;48511;38.664;-9.202;2022-12-18T05:08:40;50136.63;;;-146.63;94.14
62462;BME280;48511;38.664;-9.202;2022-12-18T05:10:40;50120.81;;;-146.63;94.12
62462;BME280;48511;38.664;-9.202;2022-12-18T05:12:41;50087.28;;;-146.63;94.21
62462;BME280;48511;38.664;-9.202;2022-12-18T05:14:58;50110.94;;;-146.63;94.25
62462;BME280;48511;38.664;-9.202;2022-12-18T05:16:59;50122.78;;;-146.63;94.16
62462;BME280;48511;38.664;-9.202;2022-12-18T05:18:59;50110.94;;;-146.63;94.04
62462;BME280;48511;38.664;-9.202;2022-12-18T05:21:00;50148.47;;;-146.63;94.23
62462;BME280;48511;38.664;-9.202;2022-12-18T05:23:01;50126.75;;;-146.63;94.41
62462;BME280;48511;38.664;-9.202;2022-12-18T05:25:02;50116.88;;;-146.63;94.39
62462;BME280;48511;38.664;-9.202;2022-12-18T05:27:02;50114.91;;;-146.63;94.62
62462;BME280;48511;38.664;-9.202;2022-12-18T05:29:03;50114.91;;;-146.63;94.29
62462;BME280;48511;38.664;-9.202;2022-12-18T05:31:04;50108.97;;;-146.63;94.53
62462;BME280;48511;38.664;-9.202;2022-12-18T05:33:05;50110.94;;;-146.63;94.48
62462;BME280;48511;38.664;-9.202;2022-12-18T05:35:08;50146.47;;;-146.63;94.41
62462;BME280;48511;38.664;-9.202;2022-12-18T05:37:09;50126.75;;;-146.63;94.28
62462;BME280;48511;38.664;-9.202;2022-12-18T05:39:10;50120.81;;;-146.63;94.42
62462;BME280;48511;38.664;-9.202;2022-12-18T05:41:11;50124.78;;;-146.63;94.41
62462;BME280;48511;38.664;-9.202;2022-12-18T05:43:11;50138.59;;;-146.63;94.17
62462;BME280;48511;38.664;-9.202;2022-12-18T05:45:12;50130.69;;;-146.63;94.33
62462;BME280;48511;38.664;-9.202;2022-12-18T05:47:13;50142.53;;;-146.63;94.26
62462;BME280;48511;38.664;-9.202;2022-12-18T05:49:14;50110.94;;;-146.63;94.32
62462;BME280;48511;38.664;-9.202;2022-12-18T05:51:16;50122.78;;;-146.63;94.38
62462;BME280;48511;38.664;-9.202;2022-12-18T05:53:19;50128.72;;;-146.63;94.44
62462;BME280;48511;38.664;-9.202;2022-12-18T05:55:20;50107.00;;;-146.63;94.42
62462;BME280;48511;38.664;-9.202;2022-12-18T05:57:23;50140.56;;;-146.63;94.17
62462;BME280;48511;38.664;-9.202;2022-12-18T05:59:24;50150.44;;;-146.63;94.30
62462;BME280;48511;38.664;-9.202;2022-12-18T06:01:26;50091.22;;;-146.63;94.27
62462;BME280;48511;38.664;-9.202;2022-12-18T06:03:27;50126.75;;;-146.63;94.54
62462;BME280;48511;38.664;-9.202;2022-12-18T06:05:27;50118.84;;;-146.63;94.59
62462;BME280;48511;38.664;-9.202;2022-12-18T06:07:28;50128.72;;;-146.63;94.75
62462;BME280;48511;38.664;-9.202;2022-12-18T06:09:29;50114.91;;;-146.63;94.87
62462;BME280;48511;38.664;-9.202;2022-12-18T06:11:30;50146.47;;;-146.63;94.97
62462;BME280;48511;38.664;-9.202;2022-12-18T06:13:30;50162.28;;;-146.63;95.01
62462;BME280;48511;38.664;-9.202;2022-12-18T06:15:31;50087.28;;;-146.63;95.06
62462;BME280;48511;38.664;-9.202;2022-12-18T06:17:33;50103.06;;;-146.63;95.14
62462;BME280;48511;38.664;-9.202;2022-12-18T06:19:34;50124.78;;;-146.63;95.23
62462;BME280;48511;38.664;-9.202;2022-12-18T06:21:34;50140.56;;;-146.63;95.14
62462;BME280;48511;38.664;-9.202;2022-12-18T06:23:35;50114.91;;;-146.63;95.05
62462;BME280;48511;38.664;-9.202;2022-12-18T06:25:39;50146.47;;;-146.63;95.07
62462;BME280;48511;38.664;-9.202;2022-12-18T06:27:40;50114.91;;;-146.63;95.22
62462;BME280;48511;38.664;-9.202;2022-12-18T06:29:41;50116.88;;;-146.63;95.21
62462;BME280;48511;38.664;-9.202;2022-12-18T06:31:41;50077.41;;;-146.63;95.11
62462;BME280;48511;38.664;-9.202;2022-12-18T06:33:42;50130.69;;;-146.63;95.06
62462;BME280;48511;38.664;-9.202;2022-12-18T06:35:43;50108.97;;;-146.63;95.19
62462;BME280;48511;38.664;-9.202;2022-12-18T06:37:44;50134.63;;;-146.63;94.97
62462;BME280;48511;38.664;-9.202;2022-12-18T06:39:44;50091.22;;;-146.63;95.08
62462;BME280;48511;38.664;-9.202;2022-12-18T06:41:45;50116.88;;;-146.63;95.13
62462;BME280;48511;38.664;-9.202;2022-12-18T06:43:46;50103.06;;;-146.63;94.98
62462;BME280;48511;38.664;-9.202;2022-12-18T06:45:47;50136.63;;;-146.63;95.21
62462;BME280;48511;38.664;-9.202;2022-12-18T06:47:53;50091.22;;;-146.63;95.04
62462;BME280;48511;38.664;-9.202;2022-12-18T06:49:54;50110.94;;;-146.63;95.13
62462;BME280;48511;38.664;-9.202;2022-12-18T06:51:54;50103.06;;;-146.63;94.95
62462;BME280;48511;38.664;-9.202;2022-12-18T06:53:55;50110.94;;;-146.63;95.06
62462;BME280;48511;38.664;-9.202;2022-12-18T06:56:03;50089.25;;;-146.63;95.10
62462;BME280;48511;38.664;-9.202;2022-12-18T06:58:04;50126.75;;;-146.63;94.89
62462;BME280;48511;38.664;-9.202;2022-12-18T07:00:06;50118.84;;;-146.63;95.04
62462;BME280;48511;38.664;-9.202;2022-12-18T07:02:11;50146.47;;;-146.63;94.89
62462;BME280;48511;38.664;-9.202;2022-12-18T07:04:12;50142.53;;;-146.63;94.92
62462;BME280;48511;38.664;-9.202;2022-12-18T07:06:19;50083.31;;;-146.63;94.94
62462;BME280;48511;38.664;-9.202;2022-12-18T07:08:20;50162.28;;;-146.63;94.89
62462;BME280;48511;38.664;-9.202;2022-12-18T07:10:21;50095.16;;;-146.63;94.81
62462;BME280;48511;38.664;-9.202;2022-12-18T07:12:22;50150.44;;;-146.63;94.84
62462;BME280;48511;38.664;-9.202;2022-12-18T07:14:22;50110.94;;;-146.63;94.74
62462;BME280;48511;38.664;-9.202;2022-12-18T07:16:23;50126.75;;;-146.63;94.70
62462;BME280;48511;38.664;-9.202;2022-12-18T07:18:24;50107.00;;;-146.63;94.80
62462;BME280;48511;38.664;-9.202;2022-12-18T07:20:24;50162.28;;;-146.63;94.77
62462;BME280;48511;38.664;-9.202;2022-12-18T07:22:25;50132.66;;;-146.63;94.70
62462;BME280;48511;38.664;-9.202;2022-12-18T07:24:26;50107.00;;;-146.63;94.99
62462;BME280;48511;38.664;-9.202;2022-12-18T07:26:27;50142.53;;;-146.63;94.81
62462;BME280;48511;38.664;-9.202;2022-12-18T07:28:27;50093.19;;;-146.63;94.81
62462;BME280;48511;38.664;-9.202;2022-12-18T07:30:28;50099.09;;;-146.63;95.08
62462;BME280;48511;38.664;-9.202;2022-12-18T07:32:30;50158.31;;;-146.63;95.19
62462;BME280;48511;38.664;-9.202;2022-12-18T07:34:31;50130.69;;;-146.63;95.08
62462;BME280;48511;38.664;-9.202;2022-12-18T07:36:31;50122.78;;;-146.63;95.21
62462;BME280;48511;38.664;-9.202;2022-12-18T07:38:33;50126.75;;;-146.63;95.17
62462;BME280;48511;38.664;-9.202;2022-12-18T07:40:34;50103.06;;;-146.63;94.81
62462;BME280;48511;38.664;-9.202;2022-12-18T07:42:35;50148.47;;;-146.63;94.92
62462;BME280;48511;38.664;-9.202;2022-12-18T07:44:36;50168.19;;;-146.63;94.73
62462;BME280;48511;38.664;-9.202;2022-12-18T07:46:38;50112.94;;;-146.63;94.74
62462;BME280;48511;38.664;-9.202;2022-12-18T07:48:39;50136.63;;;-146.63;94.81
62462;BME280;48511;38.664;-9.202;2022-12-18T07:50:40;50073.44;;;-146.63;94.73
62462;BME280;48511;38.664;-9.202;2022-12-18T07:52:42;50126.75;;;-146.63;94.67
62462;BME280;48511;38.664;-9.202;2022-12-18T07:54:43;50193.84;;;-146.63;94.81
62462;BME280;48511;38.664;-9.202;2022-12-18T07:56:43;50130.69;;;-146.63;94.76
62462;BME280;48511;38.664;-9.202;2022-12-18T07:58:48;50122.78;;;-146.63;94.84
62462;BME280;48511;38.664;-9.202;2022-12-18T08:00:48;50107.00;;;-146.63;94.87
62462;BME280;48511;38.664;-9.202;2022-12-18T08:02:49;50107.00;;;-146.63;94.83
62462;BME280;48511;38.664;-9.202;2022-12-18T08:04:50;50107.00;;;-146.63;94.87
62462;BME280;48511;38.664;-9.202;2022-12-18T08:06:50;50116.88;;;-146.63;94.89
62462;BME280;48511;38.664;-9.202;2022-12-18T08:08:53;50134.63;;;-146.63;95.06
62462;BME280;48511;38.664;-9.202;2022-12-18T08:10:54;50107.00;;;-146.63;95.03
62462;BME280;48511;38.664;-9.202;2022-12-18T08:12:55;50112.94;;;-146.63;95.00
62462;BME280;48511;38.664;-9.202;2022-12-18T08:14:55;50122.78;;;-146.63;94.95
62462;BME280;48511;38.664;-9.202;2022-12-18T08:16:56;50122.78;;;-146.63;95.10
62462;BME280;48511;38.664;-9.202;2022-12-18T08:18:57;50103.06;;;-146.63;95.24
62462;BME280;48511;38.664;-9.202;2022-12-18T08:20:57;50134.63;;;-146.63;94.96
62462;BME280;48511;38.664;-9.202;2022-12-18T08:22:58;50110.94;;;-146.63;95.00
62462;BME280;48511;38.664;-9.202;2022-12-18T08:24:59;50150.44;;;-146.63;94.90
62462;BME280;48511;38.664;-9.202;2022-12-18T08:26:59;50103.06;;;-146.63;94.83
62462;BME280;48511;38.664;-9.202;2022-12-18T08:29:00;50142.53;;;-146.63;94.81
62462;BME280;48511;38.664;-9.202;2022-12-18T08:31:01;50144.50;;;-146.63;94.78
62462;BME280;48511;38.664;-9.202;2022-12-18T08:33:02;50154.38;;;-146.63;94.70
62462;BME280;48511;38.664;-9.202;2022-12-18T08:35:03;50107.00;;;-146.63;94.56
62462;BME280;48511;38.664;-9.202;2022-12-18T08:37:04;50122.78;;;-146.63;94.54
62462;BME280;48511;38.664;-9.202;2022-12-18T08:39:05;50118.84;;;-146.63;94.59
62462;BME280;48511;38.664;-9.202;2022-12-18T08:41:11;50124.78;;;-146.63;94.56
62462;BME280;48511;38.664;-9.202;2022-12-18T08:43:12;50142.53;;;-146.63;94.42
62462;BME280;48511;38.664;-9.202;2022-12-18T08:45:34;50144.50;;;-146.63;94.02
62462;BME280;48511;38.664;-9.202;2022-12-18T08:47:34;50126.75;;;-146.63;94.37
62462;BME280;48511;38.664;-9.202;2022-12-18T08:49:35;50097.13;;;-146.63;94.48
62462;BME280;48511;38.664;-9.202;2022-12-18T08:51:37;50136.63;;;-146.63;94.49
62462;BME280;48511;38.664;-9.202;2022-12-18T08:53:38;50130.69;;;-146.63;94.33
62462;BME280;48511;38.664;-9.202;2022-12-18T08:55:39;50142.53;;;-146.63;94.39
62462;BME280;48511;38.664;-9.202;2022-12-18T08:57:39;50146.47;;;-146.63;94.31
62462;BME280;48511;38.664;-9.202;2022-12-18T08:59:40;50140.56;;;-146.63;94.40
62462;BME280;48511;38.664;-9.202;2022-12-18T09:01:40;50162.28;;;-146.63;94.34
62462;BME280;48511;38.664;-9.202;2022-12-18T09:03:41;50124.78;;;-146.63;94.32
62462;BME280;48511;38.664;-9.202;2022-12-18T09:05:42;50134.63;;;-146.63;94.45
62462;BME280;48511;38.664;-9.202;2022-12-18T09:07:43;50156.34;;;-146.63;94.39
62462;BME280;48511;38.664;-9.202;2022-12-18T09:09:44;50128.72;;;-146.63;94.47
62462;BME280;48511;38.664;-9.202;2022-12-18T09:11:45;50118.84;;;-146.63;94.38
62462;BME280;48511;38.664;-9.202;2022-12-18T09:13:45;50120.81;;;-146.63;94.25
62462;BME280;48511;38.664;-9.202;2022-12-18T09:15:49;50136.63;;;-146.63;94.34
62462;BME280;48511;38.664;-9.202;2022-12-18T09:17:50;50130.69;;;-146.63;94.47
62462;BME280;48511;38.664;-9.202;2022-12-18T09:19:53;50071.47;;;-146.63;94.51
62462;BME280;48511;38.664;-9.202;2022-12-18T09:21:53;50110.94;;;-146.63;94.18
62462;BME280;48511;38.664;-9.202;2022-12-18T09:23:55;50103.06;;;-146.63;94.06
62462;BME280;48511;38.664;-9.202;2022-12-18T09:25:59;50107.00;;;-146.63;93.70
62462;BME280;48511;38.664;-9.202;2022-12-18T09:28:00;50150.44;;;-146.63;93.26
62462;BME280;48511;38.664;-9.202;2022-12-18T09:30:01;50140.56;;;-146.63;93.19
62462;BME280;48511;38.664;-9.202;2022-12-18T09:32:01;50110.94;;;-146.63;92.98
62462;BME280;48511;38.664;-9.202;2022-12-18T09:34:05;50114.91;;;-146.63;93.04
62462;BME280;48511;38.664;-9.202;2022-12-18T09:36:08;50130.69;;;-146.63;92.80
62462;BME280;48511;38.664;-9.202;2022-12-18T09:38:16;50142.53;;;-146.63;92.80
62462;BME280;48511;38.664;-9.202;2022-12-18T09:40:20;50093.19;;;-146.63;92.99
62462;BME280;48511;38.664;-9.202;2022-12-18T09:42:21;50136.63;;;-146.63;93.05
62462;BME280;48511;38.664;-9.202;2022-12-18T09:44:27;50140.56;;;-146.63;92.87
62462;BME280;48511;38.664;-9.202;2022-12-18T09:46:33;50138.59;;;-146.63;92.71
62462;BME280;48511;38.664;-9.202;2022-12-18T09:48:37;50126.75;;;-146.63;92.84
62462;BME280;48511;38.664;-9.202;2022-12-18T09:50:39;50142.53;;;-146.63;92.80
62462;BME280;48511;38.664;-9.202;2022-12-18T09:52:45;50091.22;;;-146.63;92.36
62462;BME280;48511;38.664;-9.202;2022-12-18T09:54:55;50105.03;;;-146.63;92.31
62462;BME280;48511;38.664;-9.202;2022-12-18T09:56:57;50122.78;;;-146.63;92.33
62462;BME280;48511;38.664;-9.202;2022-12-18T09:58:59;50142.53;;;-146.63;92.36
62462;BME280;48511;38.664;-9.202;2022-12-18T10:01:01;50136.63;;;-146.63;92.25
62462;BME280;48511;38.664;-9.202;2022-12-18T10:03:15;50134.63;;;-146.63;91.84
62462;BME280;48511;38.664;-9.202;2022-12-18T10:05:24;50097.13;;;-146.63;91.54
62462;BME280;48511;38.664;-9.202;2022-12-18T10:07:38;50122.78;;;-146.63;91.10
62462;BME280;48511;38.664;-9.202;2022-12-18T10:12:38;50134.63;;;-146.63;90.54
62462;BME280;48511;38.664;-9.202;2022-12-18T10:15:00;50114.91;;;-146.63;90.21
62462;BME280;48511;38.664;-9.202;2022-12-18T10:17:26;50142.53;;;-146.63;89.69
62462;BME280;48511;38.664;-9.202;2022-12-18T10:24:37;50166.22;;;-146.63;89.26
62462;BME280;48511;38.664;-9.202;2022-12-18T10:26:41;50154.38;;;-146.63;87.37
62462;BME280;48511;38.664;-9.202;2022-12-18T10:28:43;50122.78;;;-146.63;88.06
62462;BME280;48511;38.664;-9.202;2022-12-18T10:30:44;50168.19;;;-146.63;87.80
62462;BME280;48511;38.664;-9.202;2022-12-18T10:32:45;50126.75;;;-146.63;86.40
62462;BME280;48511;38.664;-9.202;2022-12-18T10:34:47;50112.94;;;-146.63;86.66
62462;BME280;48511;38.664;-9.202;2022-12-18T10:36:48;50116.88;;;-146.63;86.93
62462;BME280;48511;38.664;-9.202;2022-12-18T10:38:49;50170.16;;;-146.63;86.62
62462;BME280;48511;38.664;-9.202;2022-12-18T10:41:00;50156.34;;;-146.63;86.82
62462;BME280;48511;38.664;-9.202;2022-12-18T10:43:05;50154.38;;;-146.63;86.89
62462;BME280;48511;38.664;-9.202;2022-12-18T10:45:16;50162.28;;;-146.63;86.97
62462;BME280;48511;38.664;-9.202;2022-12-18T10:47:18;50138.59;;;-146.63;86.33
62462;BME280;48511;38.664;-9.202;2022-12-18T10:49:23;50144.50;;;-146.63;85.94
62462;BME280;48511;38.664;-9.202;2022-12-18T10:53:30;50122.78;;;-146.63;86.06
62462;BME280;48511;38.664;-9.202;2022-12-18T10:55:38;50114.91;;;-146.63;86.04
62462;BME280;48511;38.664;-9.202;2022-12-18T10:57:40;50124.78;;;-146.63;85.76
62462;BME280;48511;38.664;-9.202;2022-12-18T10:59:56;50142.53;;;-146.63;85.49
62462;BME280;48511;38.664;-9.202;2022-12-18T11:01:58;50103.06;;;-146.63;85.37
62462;BME280;48511;38.664;-9.202;2022-12-18T11:04:04;50118.84;;;-146.63;84.87
62462;BME280;48511;38.664;-9.202;2022-12-18T11:06:13;50140.56;;;-146.63;84.36